Time;durP1;ratioP1;P1;durP2;ratioP2;P2;SDS_P1;SDS_P2;PMS_P1;PMS_P2;Temp;Humidity;BMP_temperature;BMP_pressure;BME280_temperature;BME280_humidity;BME280_pressure;Samples;Min_cycle;Max_cycle;Signal;HPM_P1;HPM_P2
2021/09/26 00:01:26;;;;;;;9.30;7.93;;;10.20;99.90;;;;;;5018134;28;20520;-85
2021/09/26 00:03:53;;;;;;;10.77;8.00;;;10.20;99.90;;;;;;5035765;28;20045;-86
2021/09/26 00:06:20;;;;;;;10.40;7.82;;;10.30;99.90;;;;;;5035077;28;20453;-85
2021/09/26 00:08:47;;;;;;;17.95;8.48;;;10.30;99.90;;;;;;5017833;28;20084;-86
2021/09/26 00:11:14;;;;;;;16.85;9.63;;;10.30;99.90;;;;;;5018135;28;20050;-85
2021/09/26 00:13:41;;;;;;;14.35;9.35;;;10.30;99.90;;;;;;5035523;28;20053;-85
2021/09/26 00:16:10;;;;;;;9.43;8.32;;;10.30;99.90;;;;;;5018036;28;20087;-85
2021/09/26 00:18:37;;;;;;;11.52;8.52;;;10.40;99.90;;;;;;5017939;28;20050;-85
2021/09/26 00:21:04;;;;;;;13.55;7.82;;;10.40;99.90;;;;;;5035363;28;20414;-85
2021/09/26 00:23:32;;;;;;;11.23;7.88;;;10.50;99.90;;;;;;5017926;28;20057;-85
2021/09/26 00:26:00;;;;;;;12.13;9.55;;;10.50;99.90;;;;;;5035350;28;20146;-85
2021/09/26 00:28:27;;;;;;;8.48;7.63;;;10.60;99.90;;;;;;5050608;28;20124;-85
2021/09/26 00:30:55;;;;;;;9.52;7.88;;;10.60;99.90;;;;;;5035103;28;20050;-85
2021/09/26 00:33:22;;;;;;;12.32;8.57;;;10.60;99.90;;;;;;5035468;28;20045;-85
2021/09/26 00:35:49;;;;;;;11.05;8.18;;;10.60;99.90;;;;;;5035065;28;20057;-84
2021/09/26 00:38:18;;;;;;;11.35;7.93;;;10.60;99.90;;;;;;5050508;28;20089;-84
2021/09/26 00:40:48;;;;;;;14.43;8.82;;;10.70;99.90;;;;;;5017843;28;20049;-85
2021/09/26 00:43:16;;;;;;;11.77;7.63;;;10.70;99.90;;;;;;5034830;28;20054;-85
2021/09/26 00:45:43;;;;;;;8.70;7.82;;;10.80;99.90;;;;;;5017576;28;20099;-84
2021/09/26 00:48:11;;;;;;;7.88;6.97;;;10.80;99.90;;;;;;5017382;28;20524;-85
2021/09/26 00:50:38;;;;;;;9.80;6.90;;;10.80;99.90;;;;;;5017485;28;20081;-85
2021/09/26 00:53:05;;;;;;;10.13;8.30;;;10.80;99.90;;;;;;5017415;28;20047;-85
2021/09/26 00:55:32;;;;;;;16.95;7.53;;;10.80;99.90;;;;;;5034632;28;20501;-85
2021/09/26 00:58:00;;;;;;;10.32;6.90;;;10.80;99.90;;;;;;5050043;28;20101;-84
2021/09/26 01:00:27;;;;;;;11.38;7.75;;;10.80;99.90;;;;;;5017013;28;20049;-85
2021/09/26 01:02:55;;;;;;;13.85;7.65;;;10.80;99.90;;;;;;5035505;28;20113;-85
2021/09/26 01:05:26;;;;;;;11.75;8.45;;;10.80;99.90;;;;;;5037250;28;20395;-84
2021/09/26 01:08:06;;;;;;;12.82;7.22;;;10.80;99.90;;;;;;5052485;28;20049;-85
2021/09/26 01:10:44;;;;;;;15.30;9.05;;;10.80;99.90;;;;;;5016680;28;20429;-85
2021/09/26 01:13:32;;;;;;;13.10;8.07;;;10.80;99.90;;;;;;5016124;28;20067;-85
2021/09/26 01:16:16;;;;;;;9.35;7.70;;;10.80;99.90;;;;;;5016579;28;20116;-84
2021/09/26 01:18:53;;;;;;;7.75;7.05;;;10.90;99.90;;;;;;5049458;28;20136;-84
2021/09/26 01:21:51;;;;;;;10.98;7.53;;;10.90;99.90;;;;;;5034224;28;20422;-85
2021/09/26 01:24:55;;;;;;;14.93;7.60;;;10.80;99.90;;;;;;5016839;28;20051;-84
2021/09/26 01:27:33;;;;;;;8.65;7.82;;;10.80;99.90;;;;;;5016196;28;20060;-84
2021/09/26 01:30:27;;;;;;;8.57;7.57;;;10.80;99.90;;;;;;5033951;28;20051;-84
2021/09/26 01:33:02;;;;;;;8.23;6.85;;;10.70;99.90;;;;;;5016452;28;20050;-84
2021/09/26 01:35:30;;;;;;;8.55;7.28;;;10.80;99.90;;;;;;5016993;28;20048;-84
2021/09/26 01:38:24;;;;;;;12.45;8.20;;;10.90;99.90;;;;;;5033473;28;20504;-83
2021/09/26 01:41:03;;;;;;;8.68;7.65;;;10.90;99.90;;;;;;4991092;28;20052;-85
2021/09/26 01:43:38;;;;;;;8.07;7.30;;;10.90;99.90;;;;;;5049186;28;20419;-84
2021/09/26 01:46:08;;;;;;;10.27;7.50;;;11.00;99.90;;;;;;5033745;28;20050;-84
2021/09/26 01:48:38;;;;;;;8.55;7.70;;;11.00;99.90;;;;;;5016280;28;20131;-84
2021/09/26 01:51:07;;;;;;;10.10;7.13;;;11.10;99.90;;;;;;5016193;28;20049;-84
2021/09/26 01:53:40;;;;;;;7.38;6.50;;;11.00;99.90;;;;;;5048436;28;20144;-84
2021/09/26 01:56:10;;;;;;;10.60;7.53;;;11.10;99.90;;;;;;5016308;28;20584;-84
2021/09/26 01:58:38;;;;;;;9.48;7.13;;;11.00;99.90;;;;;;5033246;28;20050;-84
2021/09/26 02:01:06;;;;;;;9.63;7.03;;;11.00;99.90;;;;;;5048960;28;20049;-84
2021/09/26 02:03:34;;;;;;;8.90;7.32;;;10.90;99.90;;;;;;5048585;28;20136;-84
2021/09/26 02:06:02;;;;;;;9.07;6.82;;;10.80;99.90;;;;;;5033352;28;20490;-84
2021/09/26 02:08:29;;;;;;;9.20;6.72;;;10.90;99.90;;;;;;5033314;28;20482;-85
2021/09/26 02:10:58;;;;;;;7.43;6.82;;;10.80;99.90;;;;;;5032987;28;20049;-84
2021/09/26 02:13:26;;;;;;;9.98;6.68;;;10.70;99.90;;;;;;5032894;28;20136;-84
2021/09/26 02:15:55;;;;;;;7.40;6.70;;;10.70;99.90;;;;;;5048275;28;20099;-85
2021/09/26 02:18:23;;;;;;;7.82;6.32;;;10.60;99.90;;;;;;5015863;28;20076;-84
2021/09/26 02:20:51;;;;;;;9.90;7.18;;;10.60;99.90;;;;;;5033932;28;20265;-84
2021/09/26 02:23:18;;;;;;;9.63;6.60;;;10.50;99.90;;;;;;5031618;28;20110;-84
2021/09/26 02:25:45;;;;;;;10.85;7.70;;;10.50;99.90;;;;;;5024124;28;20111;-84
2021/09/26 02:28:13;;;;;;;13.05;7.95;;;10.60;99.90;;;;;;5032925;28;20502;-84
2021/09/26 02:30:40;;;;;;;7.93;7.13;;;10.50;99.90;;;;;;5048508;28;20509;-84
2021/09/26 02:33:07;;;;;;;9.95;8.38;;;10.60;99.90;;;;;;5015477;28;20513;-84
2021/09/26 02:35:35;;;;;;;14.85;8.50;;;10.60;99.90;;;;;;5015439;28;20049;-85
2021/09/26 02:38:01;;;;;;;8.88;7.97;;;10.60;99.90;;;;;;5048618;28;20053;-84
2021/09/26 02:40:29;;;;;;;8.02;7.07;;;10.60;99.90;;;;;;5015400;28;20560;-84
2021/09/26 02:43:23;;;;;;;8.70;7.65;;;10.60;99.90;;;;;;5048152;28;20049;-84
2021/09/26 02:46:05;;;;;;;9.05;7.53;;;10.70;99.90;;;;;;5032988;28;20576;-84
2021/09/26 02:48:33;;;;;;;7.55;6.60;;;10.70;99.90;;;;;;5032897;28;20056;-84
2021/09/26 02:51:01;;;;;;;9.52;7.45;;;10.80;99.90;;;;;;5015547;28;20050;-83
2021/09/26 02:53:29;;;;;;;13.15;7.18;;;10.80;99.90;;;;;;5032486;28;20060;-84
2021/09/26 02:55:59;;;;;;;8.75;7.78;;;10.90;99.90;;;;;;5032946;28;20046;-84
2021/09/26 02:58:26;;;;;;;11.27;6.60;;;11.00;99.90;;;;;;5015402;28;20084;-84
2021/09/26 03:00:53;;;;;;;10.20;7.05;;;11.00;99.90;;;;;;5015229;28;20056;-84
2021/09/26 03:03:26;;;;;;;8.07;7.13;;;11.00;99.90;;;;;;5014935;28;20061;-85
2021/09/26 03:05:55;;;;;;;10.38;8.15;;;11.00;99.90;;;;;;5048568;28;20053;-84
2021/09/26 03:08:23;;;;;;;8.20;6.30;;;11.10;99.90;;;;;;5036929;28;20055;-84
2021/09/26 03:10:56;;;;;;;8.35;7.55;;;11.10;99.90;;;;;;5036602;28;20053;-84
2021/09/26 03:13:22;;;;;;;12.70;7.20;;;11.10;99.90;;;;;;5018973;28;20140;-83
2021/09/26 03:15:49;;;;;;;6.45;5.95;;;11.10;99.90;;;;;;5036006;28;20175;-84
2021/09/26 03:18:16;;;;;;;7.13;5.82;;;11.20;99.90;;;;;;5051689;28;20084;-84
2021/09/26 03:20:43;;;;;;;8.82;5.97;;;11.10;99.90;;;;;;5051771;28;20083;-84
2021/09/26 03:23:10;;;;;;;6.55;5.95;;;11.20;99.90;;;;;;5018884;28;20136;-84
2021/09/26 03:25:37;;;;;;;7.65;6.20;;;11.10;99.90;;;;;;5018736;28;20049;-84
2021/09/26 03:28:04;;;;;;;8.35;6.50;;;11.00;99.90;;;;;;5018804;28;20045;-83
2021/09/26 03:30:31;;;;;;;7.35;6.40;;;11.00;99.90;;;;;;5018630;28;20049;-84
2021/09/26 03:32:58;;;;;;;9.90;6.20;;;11.00;99.90;;;;;;5050528;28;20140;-85
2021/09/26 03:35:25;;;;;;;7.28;6.53;;;10.90;99.90;;;;;;5035816;28;20045;-84
2021/09/26 03:37:52;;;;;;;9.45;6.97;;;10.90;99.90;;;;;;5036153;28;20045;-85
2021/09/26 03:40:19;;;;;;;9.27;6.88;;;10.80;99.90;;;;;;5019612;28;20050;-85
2021/09/26 03:42:46;;;;;;;16.20;7.68;;;10.80;99.90;;;;;;5038521;28;20085;-85
2021/09/26 03:45:13;;;;;;;13.18;8.30;;;10.80;99.90;;;;;;5053371;28;20136;-85
2021/09/26 03:47:40;;;;;;;9.65;8.48;;;10.70;99.90;;;;;;5018342;28;20077;-84
2021/09/26 03:50:08;;;;;;;8.23;7.45;;;10.70;99.90;;;;;;5018631;28;20051;-84
2021/09/26 03:52:35;;;;;;;11.07;8.43;;;10.80;99.90;;;;;;5018126;28;20085;-84
2021/09/26 03:55:12;;;;;;;8.95;7.88;;;10.80;99.90;;;;;;5051148;28;20042;-84
2021/09/26 03:57:39;;;;;;;8.00;7.13;;;10.90;99.90;;;;;;5018006;28;20059;-84
2021/09/26 04:00:08;;;;;;;7.97;7.25;;;10.90;99.90;;;;;;5018211;28;20405;-84
2021/09/26 04:02:35;;;;;;;8.00;7.20;;;11.00;99.90;;;;;;5018198;28;20077;-84
2021/09/26 04:05:03;;;;;;;13.20;8.32;;;11.00;99.90;;;;;;5035424;28;20140;-84
2021/09/26 04:07:29;;;;;;;8.30;6.85;;;11.00;99.90;;;;;;5035410;28;20417;-84
2021/09/26 04:09:56;;;;;;;7.85;7.05;;;11.00;99.90;;;;;;5018084;28;20490;-84
2021/09/26 04:12:23;;;;;;;9.60;7.28;;;11.10;99.90;;;;;;5017845;28;20056;-84
2021/09/26 04:14:50;;;;;;;9.20;6.78;;;11.10;99.90;;;;;;5050748;28;20140;-84
2021/09/26 04:17:16;;;;;;;8.52;6.60;;;11.10;99.90;;;;;;5017335;28;20119;-83
2021/09/26 04:19:43;;;;;;;8.45;7.63;;;11.20;99.90;;;;;;5017906;28;20049;-84
2021/09/26 04:22:10;;;;;;;7.57;6.88;;;11.10;99.90;;;;;;5018203;28;20087;-84
2021/09/26 04:24:37;;;;;;;8.00;7.00;;;11.20;99.90;;;;;;5050298;28;20132;-84
2021/09/26 04:27:06;;;;;;;9.10;7.70;;;11.30;99.90;;;;;;5017454;28;20144;-84
2021/09/26 04:29:33;;;;;;;9.85;8.07;;;11.30;99.90;;;;;;5017631;28;20045;-84
2021/09/26 04:31:59;;;;;;;11.57;7.72;;;11.40;99.90;;;;;;5017320;28;20054;-84
2021/09/26 04:34:27;;;;;;;10.63;8.50;;;11.40;99.90;;;;;;5050195;28;20421;-84
2021/09/26 04:36:57;;;;;;;9.88;7.70;;;11.50;99.90;;;;;;5017596;28;20057;-84
2021/09/26 04:39:24;;;;;;;8.10;7.15;;;11.40;99.90;;;;;;5017251;28;20054;-84
2021/09/26 04:41:51;;;;;;;9.43;7.43;;;11.40;99.90;;;;;;5017340;28;20112;-84
2021/09/26 04:44:18;;;;;;;7.63;6.93;;;11.40;99.90;;;;;;5017461;28;20056;-84
2021/09/26 04:46:44;;;;;;;8.02;7.22;;;11.60;99.90;;;;;;5050234;28;20109;-84
2021/09/26 04:49:11;;;;;;;8.82;7.15;;;11.60;99.90;;;;;;5017251;28;20068;-84
2021/09/26 04:51:38;;;;;;;6.47;5.85;;;11.70;99.90;;;;;;5034461;28;20049;-84
2021/09/26 04:54:05;;;;;;;7.72;6.53;;;11.60;99.90;;;;;;5016764;28;20057;-84
2021/09/26 04:56:32;;;;;;;8.73;6.30;;;11.60;99.90;;;;;;5017420;28;20049;-84
2021/09/26 04:58:59;;;;;;;7.43;6.32;;;11.70;99.90;;;;;;5017975;28;20050;-83
2021/09/26 05:01:26;;;;;;;7.20;6.50;;;11.70;99.90;;;;;;5036442;28;20100;-84
2021/09/26 05:03:53;;;;;;;6.82;6.18;;;11.70;99.90;;;;;;5020049;28;20103;-84
2021/09/26 05:06:20;;;;;;;11.00;6.47;;;11.70;99.90;;;;;;5049555;28;20534;-84
2021/09/26 05:08:47;;;;;;;8.90;6.32;;;11.80;99.90;;;;;;5016550;28;20391;-84
2021/09/26 05:11:13;;;;;;;9.98;6.82;;;11.80;99.90;;;;;;5049199;28;20061;-84
2021/09/26 05:13:40;;;;;;;10.48;6.80;;;11.70;99.90;;;;;;5033895;28;20049;-84
2021/09/26 05:16:07;;;;;;;13.35;6.82;;;11.70;99.90;;;;;;5049437;28;20140;-84
2021/09/26 05:18:33;;;;;;;8.70;7.00;;;11.80;99.90;;;;;;5034065;28;20045;-83
2021/09/26 05:21:00;;;;;;;8.07;7.10;;;11.70;99.90;;;;;;5016629;28;20042;-84
2021/09/26 05:23:27;;;;;;;12.05;7.20;;;11.80;99.90;;;;;;5033840;28;20049;-84
2021/09/26 05:25:54;;;;;;;8.75;7.00;;;11.90;99.90;;;;;;5033849;28;20414;-83
2021/09/26 05:28:21;;;;;;;8.80;6.90;;;11.90;99.90;;;;;;5015521;28;20049;-84
2021/09/26 05:30:47;;;;;;;12.27;6.22;;;12.00;99.90;;;;;;5016174;28;20132;-84
2021/09/26 05:33:14;;;;;;;8.30;6.28;;;12.00;99.90;;;;;;5016265;28;20127;-83
2021/09/26 05:35:41;;;;;;;8.32;6.97;;;12.00;99.90;;;;;;5015523;28;20049;-84
2021/09/26 05:38:08;;;;;;;9.82;6.22;;;12.10;99.90;;;;;;5033380;28;20079;-83
2021/09/26 05:40:34;;;;;;;7.20;6.40;;;12.10;99.90;;;;;;5033420;28;20049;-84
2021/09/26 05:43:02;;;;;;;7.07;6.47;;;12.20;99.90;;;;;;5048813;28;20053;-83
2021/09/26 05:45:29;;;;;;;7.78;5.85;;;12.30;99.90;;;;;;5048785;28;20045;-83
2021/09/26 05:47:56;;;;;;;8.45;6.13;;;12.30;99.90;;;;;;5015883;28;20051;-84
2021/09/26 05:50:23;;;;;;;9.73;6.20;;;12.30;99.90;;;;;;5016344;28;20077;-84
2021/09/26 05:52:49;;;;;;;6.70;6.10;;;12.30;99.90;;;;;;5016116;28;20055;-83
2021/09/26 05:55:17;;;;;;;6.75;5.75;;;12.30;99.90;;;;;;5048252;28;20052;-84
2021/09/26 05:57:43;;;;;;;8.60;7.15;;;12.30;99.90;;;;;;5033264;28;20050;-84
2021/09/26 06:00:13;;;;;;;9.35;7.35;;;12.30;99.90;;;;;;5048331;28;20045;-85
2021/09/26 06:02:40;;;;;;;7.78;6.65;;;12.20;99.90;;;;;;5015897;28;20145;-84
2021/09/26 06:05:08;;;;;;;12.70;7.13;;;12.20;99.90;;;;;;5015320;28;20163;-83
2021/09/26 06:07:34;;;;;;;7.70;7.00;;;12.20;99.90;;;;;;5048309;28;20045;-83
2021/09/26 06:10:03;;;;;;;9.57;8.18;;;12.20;99.90;;;;;;5032755;28;20134;-84
2021/09/26 06:12:30;;;;;;;10.48;8.07;;;12.20;99.90;;;;;;5015703;28;20046;-84
2021/09/26 06:14:58;;;;;;;17.33;9.40;;;12.30;99.90;;;;;;5015459;28;20051;-83
2021/09/26 06:17:24;;;;;;;8.57;7.70;;;12.20;99.90;;;;;;5033389;28;20049;-83
2021/09/26 06:19:52;;;;;;;11.15;7.90;;;12.30;99.90;;;;;;5030219;28;20034;-84
2021/09/26 06:22:19;;;;;;;10.60;6.90;;;12.40;99.90;;;;;;5023885;28;20128;-84
2021/09/26 06:24:47;;;;;;;9.15;7.03;;;12.40;99.90;;;;;;5032935;28;20049;-84
2021/09/26 06:27:14;;;;;;;8.38;6.35;;;12.40;99.90;;;;;;5032740;28;20119;-83
2021/09/26 06:29:41;;;;;;;7.35;6.60;;;12.60;99.90;;;;;;5048283;28;20041;-83
2021/09/26 06:32:08;;;;;;;8.70;7.18;;;12.70;99.90;;;;;;5014204;28;20118;-84
2021/09/26 06:34:36;;;;;;;11.70;6.63;;;12.90;99.90;;;;;;5014429;28;20059;-83
2021/09/26 06:37:03;;;;;;;11.60;6.25;;;13.20;99.90;;;;;;5046938;28;20072;-84
2021/09/26 06:39:31;;;;;;;11.77;6.45;;;13.30;99.90;;;;;;5013351;28;20208;-83
2021/09/26 06:41:58;;;;;;;12.75;6.78;;;13.50;99.90;;;;;;5035820;28;20053;-83
2021/09/26 06:44:26;;;;;;;22.30;6.57;;;13.70;99.90;;;;;;5018535;28;20115;-84
2021/09/26 06:46:53;;;;;;;17.85;6.40;;;13.80;99.90;;;;;;5051555;28;20144;-83
2021/09/26 06:49:19;;;;;;;8.07;5.35;;;14.10;99.90;;;;;;5036108;28;20053;-84
2021/09/26 06:51:47;;;;;;;8.05;5.25;;;14.20;99.90;;;;;;5018213;28;20046;-84
2021/09/26 06:54:13;;;;;;;10.25;5.35;;;14.60;99.90;;;;;;5035498;28;20059;-83
2021/09/26 06:56:40;;;;;;;16.85;5.60;;;14.90;99.90;;;;;;5018197;28;20521;-83
2021/09/26 06:59:07;;;;;;;33.03;6.90;;;15.20;99.90;;;;;;5018031;28;20053;-84
2021/09/26 07:01:34;;;;;;;22.20;6.05;;;15.50;99.90;;;;;;5035787;28;20046;-84
2021/09/26 07:04:01;;;;;;;17.17;5.15;;;15.60;99.90;;;;;;5035791;28;20457;-83
2021/09/26 07:06:27;;;;;;;18.67;5.45;;;15.90;99.90;;;;;;5018130;28;20509;-84
2021/09/26 07:08:54;;;;;;;19.88;5.38;;;16.10;99.90;;;;;;5035460;28;20056;-84
2021/09/26 07:11:21;;;;;;;11.48;4.68;;;16.20;99.90;;;;;;5050868;28;20506;-84
2021/09/26 07:13:49;;;;;;;8.55;4.25;;;16.30;99.90;;;;;;5018038;28;20063;-83
2021/09/26 07:16:16;;;;;;;19.95;5.70;;;16.50;99.90;;;;;;5035383;28;20048;-84
2021/09/26 07:18:43;;;;;;;28.25;6.25;;;16.80;99.90;;;;;;5018455;28;20053;-84
2021/09/26 07:21:13;;;;;;;25.80;5.93;;;17.10;99.90;;;;;;5035439;28;20417;-84
2021/09/26 07:23:39;;;;;;;5.32;4.38;;;17.30;99.90;;;;;;5035585;28;20405;-84
2021/09/26 07:26:06;;;;;;;6.15;4.25;;;17.60;99.90;;;;;;5035222;28;20061;-84
2021/09/26 07:28:33;;;;;;;17.35;5.45;;;18.20;99.90;;;;;;5035279;28;20490;-84
2021/09/26 07:31:00;;;;;;;8.93;4.15;;;18.70;99.90;;;;;;5035552;28;20494;-84
2021/09/26 07:33:27;;;;;;;11.55;4.50;;;19.30;99.90;;;;;;5018118;28;20486;-85
2021/09/26 07:35:54;;;;;;;8.02;4.45;;;19.50;99.90;;;;;;5050664;28;20390;-84
2021/09/26 07:38:21;;;;;;;21.65;4.03;;;19.60;99.90;;;;;;5036909;28;20109;-84
2021/09/26 07:40:48;;;;;;;16.38;5.07;;;20.00;99.90;;;;;;5037507;28;20140;-84
2021/09/26 07:43:15;;;;;;;11.07;4.30;;;20.40;99.90;;;;;;5036507;28;20055;-84
2021/09/26 07:45:55;;;;;;;6.30;4.18;;;20.50;99.90;;;;;;5019244;28;20054;-85
2021/09/26 07:48:22;;;;;;;4.03;3.72;;;20.90;99.90;;;;;;5017539;28;20079;-84
2021/09/26 07:50:51;;;;;;;4.65;3.72;;;21.00;99.90;;;;;;5017645;28;20055;-84
2021/09/26 07:53:19;;;;;;;5.53;3.38;;;21.50;99.90;;;;;;5016771;28;20045;-84
2021/09/26 07:55:49;;;;;;;5.43;4.10;;;21.60;99.90;;;;;;5017652;28;20411;-85
2021/09/26 07:58:16;;;;;;;10.13;3.92;;;22.00;99.90;;;;;;5017953;28;20045;-85
2021/09/26 08:00:43;;;;;;;7.45;4.18;;;22.20;99.90;;;;;;5018110;28;20053;-85
2021/09/26 08:03:10;;;;;;;9.93;4.00;;;21.70;99.90;;;;;;5018329;28;20429;-85
2021/09/26 08:05:38;;;;;;;7.70;3.95;;;21.40;99.90;;;;;;5018071;28;20061;-85
2021/09/26 08:08:05;;;;;;;11.25;4.55;;;21.30;99.90;;;;;;5017841;28;20056;-85
2021/09/26 08:10:32;;;;;;;12.75;4.20;;;21.20;99.90;;;;;;5016916;28;20100;-85
2021/09/26 08:12:59;;;;;;;9.75;3.75;;;21.30;99.90;;;;;;5008233;28;20046;-85
2021/09/26 08:15:25;;;;;;;11.48;3.90;;;21.90;99.90;;;;;;5007993;28;20049;-85
2021/09/26 08:17:52;;;;;;;8.02;4.30;;;23.00;99.90;;;;;;5009347;28;20079;-86
2021/09/26 08:20:19;;;;;;;8.65;4.13;;;23.80;99.90;;;;;;5015244;28;20053;-86
2021/09/26 08:22:49;;;;;;;12.43;3.85;;;25.30;99.90;;;;;;5035368;28;20072;-85
2021/09/26 08:25:16;;;;;;;9.90;3.80;;;26.40;99.90;;;;;;5017340;28;20115;-84
2021/09/26 08:27:42;;;;;;;8.02;3.80;;;27.90;99.80;;;;;;5035317;28;20068;-85
2021/09/26 08:30:10;;;;;;;9.23;4.45;;;26.90;99.90;;;;;;5017653;28;20481;-86
2021/09/26 08:32:38;;;;;;;9.45;4.25;;;28.10;97.10;;;;;;5017430;28;20049;-85
2021/09/26 08:35:06;;;;;;;9.15;4.18;;;27.40;96.10;;;;;;5034672;28;20057;-85
2021/09/26 08:37:33;;;;;;;8.73;4.50;;;26.70;96.30;;;;;;5014818;28;20092;-84
2021/09/26 08:40:00;;;;;;;10.57;4.10;;;25.30;99.40;;;;;;4997662;28;20052;-84
2021/09/26 08:42:27;;;;;;;9.68;3.85;;;24.50;99.90;;;;;;4997399;28;20124;-84
2021/09/26 08:44:55;;;;;;;5.05;4.28;;;23.60;99.90;;;;;;5005397;28;20128;-85
2021/09/26 08:47:22;;;;;;;8.18;4.43;;;23.10;99.90;;;;;;5007923;28;20129;-85
2021/09/26 08:49:49;;;;;;;8.57;4.45;;;22.20;99.90;;;;;;5012480;28;20449;-84
2021/09/26 08:52:16;;;;;;;6.60;4.40;;;21.90;99.90;;;;;;5034570;28;20042;-85
2021/09/26 08:54:44;;;;;;;9.40;4.53;;;21.90;99.90;;;;;;5034866;28;20100;-84
2021/09/26 08:57:12;;;;;;;7.32;4.50;;;21.50;99.90;;;;;;5019598;28;20568;-86
2021/09/26 08:59:39;;;;;;;7.53;4.10;;;21.60;99.90;;;;;;5034725;28;20091;-84
2021/09/26 09:02:06;;;;;;;9.25;4.72;;;21.80;99.90;;;;;;5018209;28;20045;-84
2021/09/26 09:04:35;;;;;;;6.60;4.47;;;21.90;99.90;;;;;;5016474;28;20053;-84
2021/09/26 09:07:06;;;;;;;5.47;4.10;;;22.00;99.90;;;;;;5034270;28;20144;-84
2021/09/26 09:09:48;;;;;;;5.15;3.95;;;22.20;99.90;;;;;;5016709;28;20520;-85
2021/09/26 09:12:15;;;;;;;11.82;4.20;;;22.60;99.90;;;;;;5016492;28;20281;-85
2021/09/26 09:14:50;;;;;;;9.10;4.57;;;23.50;99.90;;;;;;5033920;28;20049;-85
2021/09/26 09:17:29;;;;;;;7.22;4.50;;;24.20;99.90;;;;;;5016607;28;20056;-85
2021/09/26 09:20:25;;;;;;;6.78;3.33;;;25.10;99.90;;;;;;5016730;28;20140;-84
2021/09/26 09:23:07;;;;;;;4.22;3.25;;;26.90;99.90;;;;;;5033841;28;20490;-84
2021/09/26 09:25:42;;;;;;;6.65;3.58;;;29.70;99.90;;;;;;5016191;28;20092;-86
2021/09/26 09:28:30;;;;;;;20.17;4.30;;;31.80;90.50;;;;;;5016376;28;20049;-86
2021/09/26 09:31:01;;;;;;;7.38;3.38;;;32.50;78.80;;;;;;5015810;28;20136;-85
2021/09/26 09:33:45;;;;;;;4.38;2.50;;;32.70;78.50;;;;;;5015936;28;20517;-85
2021/09/26 09:36:19;;;;;;;2.83;2.63;;;32.50;75.20;;;;;;5030150;28;20045;-85
2021/09/26 09:38:51;;;;;;;3.10;2.80;;;32.20;75.80;;;;;;4999395;28;20050;-85
2021/09/26 09:41:38;;;;;;;4.38;2.55;;;32.20;75.30;;;;;;4996659;28;20074;-85
2021/09/26 09:44:08;;;;;;;3.58;2.85;;;33.20;71.50;;;;;;4996862;28;20122;-86
2021/09/26 09:46:41;;;;;;;3.00;2.50;;;33.70;69.80;;;;;;4996490;28;20113;-85
2021/09/26 09:49:20;;;;;;;3.97;2.88;;;33.70;69.00;;;;;;4996552;28;20408;-85
2021/09/26 09:51:55;;;;;;;5.15;2.75;;;35.20;65.00;;;;;;4996779;28;20056;-86
2021/09/26 09:54:50;;;;;;;4.90;2.33;;;35.50;64.60;;;;;;4996569;28;20049;-86
2021/09/26 09:57:21;;;;;;;2.83;2.67;;;36.70;62.10;;;;;;5011693;28;20410;-86
2021/09/26 09:59:48;;;;;;;3.50;2.83;;;37.60;59.70;;;;;;5014188;28;20308;-85
2021/09/26 10:02:16;;;;;;;4.38;2.67;;;37.60;58.90;;;;;;4996045;28;20069;-86
2021/09/26 10:04:45;;;;;;;3.20;2.42;;;38.60;56.90;;;;;;4996234;28;20052;-86
2021/09/26 10:07:24;;;;;;;4.18;2.50;;;37.80;56.70;;;;;;5015329;28;20562;-86
2021/09/26 10:09:52;;;;;;;3.17;2.88;;;37.70;56.50;;;;;;5003197;28;20053;-86
2021/09/26 10:12:30;;;;;;;3.03;2.17;;;38.00;56.80;;;;;;5013788;28;20046;-86
2021/09/26 10:15:05;;;;;;;3.30;2.42;;;37.70;56.80;;;;;;4996090;28;20050;-86
2021/09/26 10:17:32;;;;;;;3.17;2.50;;;38.60;55.60;;;;;;5001901;28;20054;-87
2021/09/26 10:19:59;;;;;;;4.22;2.85;;;39.20;55.40;;;;;;4997299;28;20050;-87
2021/09/26 10:22:25;;;;;;;2.60;2.40;;;38.40;54.30;;;;;;4996098;28;20419;-86
2021/09/26 10:24:56;;;;;;;2.50;2.40;;;38.40;54.10;;;;;;4996521;28;20073;-86
2021/09/26 10:27:24;;;;;;;4.78;2.65;;;38.10;54.70;;;;;;4996335;28;20052;-86
2021/09/26 10:30:07;;;;;;;5.80;2.95;;;38.10;54.70;;;;;;5013527;28;20045;-86
2021/09/26 10:32:36;;;;;;;2.80;2.70;;;38.50;54.50;;;;;;4995973;28;20053;-87
2021/09/26 10:35:04;;;;;;;3.85;3.28;;;38.20;53.80;;;;;;4996012;28;20136;-86
2021/09/26 10:37:31;;;;;;;3.50;2.78;;;37.70;56.10;;;;;;5013047;28;20132;-86
2021/09/26 10:39:58;;;;;;;6.78;3.08;;;38.70;54.80;;;;;;5013237;28;20137;-86
2021/09/26 10:42:25;;;;;;;5.20;2.55;;;39.40;53.70;;;;;;4996271;28;20459;-86
2021/09/26 10:44:55;;;;;;;6.05;2.03;;;39.30;54.80;;;;;;5013515;28;20046;-86
2021/09/26 10:47:23;;;;;;;5.90;2.38;;;40.10;53.40;;;;;;4995897;28;20132;-86
2021/09/26 10:49:57;;;;;;;2.28;2.10;;;40.50;52.20;;;;;;4995972;28;20053;-87
2021/09/26 10:52:29;;;;;;;4.40;2.15;;;40.00;52.70;;;;;;5012694;28;20137;-87
2021/09/26 10:55:21;;;;;;;7.27;3.10;;;40.90;51.00;;;;;;5000889;28;20052;-86
2021/09/26 10:58:07;;;;;;;4.53;2.75;;;40.70;49.90;;;;;;5023692;28;20630;-87
2021/09/26 11:00:42;;;;;;;4.43;2.42;;;40.00;51.90;;;;;;5004737;28;20049;-87
2021/09/26 11:03:11;;;;;;;3.63;2.30;;;39.90;51.70;;;;;;5003925;28;20042;-86
2021/09/26 11:05:39;;;;;;;2.55;2.20;;;39.80;51.80;;;;;;5003830;28;20132;-87
2021/09/26 11:08:12;;;;;;;4.13;2.20;;;39.00;51.90;;;;;;5006381;28;20045;-86
2021/09/26 11:10:43;;;;;;;11.00;3.33;;;37.60;53.80;;;;;;5005408;28;20421;-87
2021/09/26 11:13:23;;;;;;;6.07;2.53;;;35.80;57.00;;;;;;5020741;28;20081;-87
2021/09/26 11:16:13;;;;;;;5.88;5.05;;;34.40;57.70;;;;;;4995957;28;20045;-86
2021/09/26 11:19:13;;;;;;;7.05;2.53;;;33.30;60.30;;;;;;4995679;28;20133;-86
2021/09/26 11:21:40;;;;;;;3.20;2.05;;;32.70;61.40;;;;;;4997512;28;20053;-86
2021/09/26 11:24:31;;;;;;;2.72;2.33;;;32.60;62.10;;;;;;5006939;28;20132;-88
2021/09/26 11:27:11;;;;;;;5.38;2.50;;;33.90;60.10;;;;;;5016386;28;20048;-86
2021/09/26 11:29:37;;;;;;;5.60;2.30;;;35.00;58.70;;;;;;5020002;28;20516;-86
2021/09/26 11:32:23;;;;;;;3.42;2.00;;;35.00;58.30;;;;;;5033301;28;20050;-86
2021/09/26 11:34:53;;;;;;;4.28;2.28;;;35.60;57.70;;;;;;5042523;28;20072;-87
2021/09/26 11:37:35;;;;;;;3.47;3.17;;;35.60;57.70;;;;;;5035435;28;20503;-87
2021/09/26 11:40:04;;;;;;;3.22;2.70;;;35.00;57.90;;;;;;5015395;28;20051;-87
2021/09/26 11:42:33;;;;;;;2.55;2.38;;;34.40;58.10;;;;;;5024060;28;20045;-88
2021/09/26 11:45:03;;;;;;;4.32;2.70;;;33.70;61.20;;;;;;5009121;28;20490;-87
2021/09/26 11:47:30;;;;;;;4.32;2.83;;;33.00;60.50;;;;;;5008998;28;20527;-87
2021/09/26 11:50:04;;;;;;;3.53;2.60;;;32.10;64.10;;;;;;5017000;28;20478;-86
2021/09/26 11:52:38;;;;;;;64.20;7.43;;;31.70;65.00;;;;;;4997195;28;20054;-87
2021/09/26 11:55:06;;;;;;;117.88;13.10;;;31.20;67.10;;;;;;4999090;28;20056;-87
2021/09/26 11:57:33;;;;;;;6.95;3.28;;;31.20;68.70;;;;;;4999078;28;20049;-85
2021/09/26 12:00:00;;;;;;;36.05;6.68;;;30.80;65.10;;;;;;4998454;28;20046;-88
2021/09/26 12:02:33;;;;;;;10.40;3.85;;;29.90;66.50;;;;;;4999209;28;20105;-88
2021/09/26 12:05:01;;;;;;;25.33;5.37;;;29.50;67.10;;;;;;5016382;28;20136;-87
2021/09/26 12:07:34;;;;;;;5.75;4.35;;;29.70;70.30;;;;;;5016141;28;20363;-87
2021/09/26 12:10:01;;;;;;;;;;;29.70;73.70;;;;;;5016533;28;20049;-88
2021/09/26 12:12:29;;;;;;;5.50;3.38;;;29.60;71.40;;;;;;4998570;28;19984;-86
2021/09/26 12:15:03;;;;;;;7.50;3.22;;;29.60;71.20;;;;;;4999314;28;20050;-86
2021/09/26 12:17:32;;;;;;;7.97;2.65;;;29.50;72.20;;;;;;4998834;28;20329;-86
2021/09/26 12:20:03;;;;;;;4.80;3.10;;;29.00;75.70;;;;;;4998666;28;20090;-86
2021/09/26 12:22:31;;;;;;;6.40;2.90;;;28.90;72.80;;;;;;4998381;28;20052;-87
2021/09/26 12:25:01;;;;;;;10.52;3.70;;;28.90;73.70;;;;;;5015421;28;20509;-85
2021/09/26 12:27:50;;;;;;;3.47;2.97;;;28.80;72.70;;;;;;4998216;28;20053;-87
2021/09/26 12:30:21;;;;;;;10.93;6.35;;;28.70;74.40;;;;;;4998063;28;20483;-86
2021/09/26 12:32:53;;;;;;;3.20;2.40;;;28.60;73.30;;;;;;5015544;28;20100;-86
2021/09/26 12:35:36;;;;;;;15.68;5.68;;;28.30;73.90;;;;;;5015146;28;20060;-86
2021/09/26 12:38:06;;;;;;;8.85;3.60;;;28.20;75.70;;;;;;5015487;28;20516;-87
2021/09/26 12:40:38;;;;;;;5.00;2.45;;;27.80;76.70;;;;;;4998203;28;20042;-87
2021/09/26 12:43:06;;;;;;;2.80;2.50;;;27.70;77.30;;;;;;5015512;28;20052;-87
2021/09/26 12:45:41;;;;;;;5.35;3.10;;;27.60;79.20;;;;;;4997825;28;20471;-87
2021/09/26 12:48:10;;;;;;;8.13;4.10;;;27.50;80.30;;;;;;4998606;28;20132;-88
2021/09/26 12:50:46;;;;;;;7.70;3.05;;;27.50;77.30;;;;;;4998607;28;20060;-86
2021/09/26 12:53:21;;;;;;;8.82;3.05;;;27.40;79.50;;;;;;5014614;28;20060;-87
2021/09/26 12:55:51;;;;;;;6.68;3.30;;;27.40;78.20;;;;;;5023668;28;20085;-92
2021/09/26 12:58:42;;;;;;;6.25;3.30;;;27.10;79.10;;;;;;4998228;28;20129;-88